createdAt,value
2019-05-02T00:01:21.520Z,46.75
2019-05-02T00:03:51.181Z,46.58
2019-05-02T00:06:21.181Z,47.08
2019-05-02T00:08:50.828Z,45.23
2019-05-02T00:11:20.674Z,47.38
2019-05-02T00:13:50.541Z,45.52
2019-05-02T00:16:20.173Z,45.20
2019-05-02T00:18:49.765Z,45.60
2019-05-02T00:21:19.989Z,47.50
2019-05-02T00:23:49.576Z,45.80
2019-05-02T00:26:19.189Z,46.68
2019-05-02T00:28:49.909Z,45.40
2019-05-02T00:31:21.149Z,45.58
2019-05-02T00:33:51.031Z,44.15
2019-05-02T00:36:20.568Z,45.92
2019-05-02T00:38:50.083Z,45.50
2019-05-02T00:41:19.663Z,45.05
2019-05-02T00:43:49.241Z,42.70
2019-05-02T00:46:18.884Z,43.30
2019-05-02T00:48:54.198Z,44.27
2019-05-02T00:51:21.922Z,46.63
2019-05-02T00:53:52.501Z,49.05
2019-05-02T00:56:22.103Z,50.28
2019-05-02T00:58:52.297Z,50.35
2019-05-02T01:01:30.881Z,49.65
2019-05-02T01:04:01.995Z,50.95
2019-05-02T01:06:31.585Z,50.75
2019-05-02T01:09:01.173Z,50.43
2019-05-02T01:11:32.124Z,50.52
2019-05-02T01:14:13.726Z,50.58
2019-05-02T01:16:43.318Z,55.08
2019-05-02T01:19:16.155Z,55.10
2019-05-02T01:21:44.192Z,58.92
2019-05-02T01:24:13.792Z,61.50
2019-05-02T01:26:47.754Z,57.43
2019-05-02T01:29:18.900Z,59.27
2019-05-02T01:31:54.795Z,57.95
2019-05-02T01:34:31.885Z,58.05
2019-05-02T01:37:20.358Z,61.18
2019-05-02T01:39:44.114Z,60.05
2019-05-02T01:42:13.716Z,60.15
2019-05-02T01:44:43.302Z,61.48
2019-05-02T01:47:12.902Z,59.45
2019-05-02T01:49:42.483Z,60.20
2019-05-02T01:52:12.077Z,60.70
2019-05-02T01:54:45.688Z,57.98
2019-05-02T01:57:12.864Z,56.55
2019-05-02T01:59:42.382Z,57.03
2019-05-02T02:02:12.431Z,58.25
2019-05-02T02:04:42.002Z,57.43
2019-05-02T02:07:14.932Z,58.65
2019-05-02T02:09:43.905Z,54.60
2019-05-02T02:12:14.094Z,54.30
2019-05-02T02:14:48.025Z,54.80
2019-05-02T02:17:15.507Z,57.55
2019-05-02T02:19:47.727Z,52.95
2019-05-02T02:22:24.978Z,53.38
2019-05-02T02:25:12.138Z,51.33
2019-05-02T02:27:41.682Z,51.58
2019-05-02T02:30:17.610Z,52.48
2019-05-02T02:32:42.535Z,53.10
2019-05-02T02:35:12.893Z,54.73
2019-05-02T02:37:51.993Z,56.73
2019-05-02T02:40:14.332Z,57.00
2019-05-02T02:42:44.507Z,58.85
2019-05-02T02:45:44.778Z,58.17
2019-05-02T02:48:14.434Z,55.43
2019-05-02T02:50:45.297Z,56.63
2019-05-02T02:53:18.227Z,55.45
2019-05-02T02:55:47.971Z,57.10
2019-05-02T02:58:17.569Z,56.37
2019-05-02T03:00:47.604Z,60.25
2019-05-02T03:03:20.692Z,55.48
2019-05-02T03:05:49.557Z,54.77
2019-05-02T03:08:19.150Z,52.05
2019-05-02T03:10:49.025Z,50.40
2019-05-02T03:13:25.730Z,49.48
2019-05-02T03:16:06.741Z,48.23
2019-05-02T03:18:39.851Z,48.92
2019-05-02T03:21:02.957Z,47.83
2019-05-02T03:23:32.610Z,49.03
2019-05-02T03:26:08.031Z,46.98
2019-05-02T03:28:33.601Z,46.00
2019-05-02T03:31:21.689Z,46.15
2019-05-02T03:33:51.428Z,43.95
2019-05-02T03:36:16.236Z,46.25
2019-05-02T03:38:37.153Z,45.70
2019-05-02T03:41:13.247Z,50.98
2019-05-02T03:43:38.911Z,45.10
2019-05-02T03:46:13.561Z,46.60
2019-05-02T03:48:40.469Z,47.65
2019-05-02T03:51:19.920Z,46.48
2019-05-02T03:53:41.249Z,52.48
2019-05-02T03:56:13.761Z,50.60
2019-05-02T03:58:48.628Z,50.63
2019-05-02T04:01:13.908Z,50.43
2019-05-02T04:03:43.967Z,50.58
2019-05-02T04:06:20.744Z,47.73
2019-05-02T04:08:45.293Z,48.87
2019-05-02T04:11:17.944Z,47.75
2019-05-02T04:13:48.473Z,47.85
2019-05-02T04:16:18.696Z,48.70
2019-05-02T04:18:55.624Z,45.48
2019-05-02T04:21:24.294Z,49.40
2019-05-02T04:23:52.236Z,50.03
2019-05-02T04:26:21.850Z,48.83
2019-05-02T04:28:52.257Z,47.85
2019-05-02T04:31:28.795Z,48.90
2019-05-02T04:33:53.887Z,49.00
2019-05-02T04:36:23.694Z,47.30
2019-05-02T04:38:53.288Z,49.83
2019-05-02T04:41:28.887Z,49.08
2019-05-02T04:43:57.730Z,49.30
2019-05-02T04:46:28.174Z,51.37
2019-05-02T04:48:58.936Z,50.25
2019-05-02T04:51:31.746Z,50.28
2019-05-02T04:53:59.045Z,51.30
2019-05-02T04:56:28.596Z,53.83
2019-05-02T04:59:01.188Z,56.00
2019-05-02T05:01:33.251Z,58.83
2019-05-02T05:04:03.156Z,58.35
2019-05-02T05:06:31.825Z,57.35
2019-05-02T05:09:04.132Z,56.90
2019-05-02T05:11:32.621Z,59.05
2019-05-02T05:14:02.208Z,58.20
2019-05-02T05:16:31.842Z,58.10
2019-05-02T05:19:01.425Z,59.75
2019-05-02T05:21:31.040Z,59.77
2019-05-02T05:24:02.254Z,70.85
2019-05-02T05:26:33.948Z,59.42
2019-05-02T05:29:05.438Z,59.05
2019-05-02T05:31:35.021Z,58.10
2019-05-02T05:34:04.783Z,60.83
2019-05-02T05:36:34.367Z,58.80
2019-05-02T05:39:08.567Z,58.28
2019-05-02T05:41:37.824Z,58.70
2019-05-02T05:44:07.879Z,59.53
2019-05-02T05:46:40.946Z,59.60
2019-05-02T05:49:10.466Z,58.73
2019-05-02T05:51:40.065Z,59.70
2019-05-02T05:54:09.724Z,58.48
2019-05-02T05:56:42.958Z,56.20
2019-05-02T05:59:10.542Z,61.80
2019-05-02T06:01:40.180Z,58.35
2019-05-02T06:04:13.855Z,59.03
2019-05-02T06:06:41.311Z,58.40
2019-05-02T06:09:13.738Z,58.98
2019-05-02T06:11:42.481Z,55.65
2019-05-02T06:14:12.103Z,55.23
2019-05-02T06:16:46.348Z,57.50
2019-05-02T06:19:13.132Z,55.35
2019-05-02T06:21:45.265Z,56.05
2019-05-02T06:24:17.094Z,55.03
2019-05-02T06:26:49.655Z,53.98
2019-05-02T06:29:18.441Z,56.05
2019-05-02T06:31:49.202Z,54.58
2019-05-02T06:34:18.754Z,52.78
2019-05-02T06:36:48.513Z,55.28
2019-05-02T06:39:18.299Z,54.08
2019-05-02T06:41:52.099Z,55.12
2019-05-02T06:44:23.717Z,52.55
2019-05-02T06:46:50.325Z,52.03
2019-05-02T06:49:24.141Z,53.50
2019-05-02T06:51:55.865Z,56.48
2019-05-02T06:54:22.851Z,54.25
2019-05-02T06:56:57.206Z,52.08
2019-05-02T06:59:26.845Z,64.72
2019-05-02T07:01:57.501Z,53.92
2019-05-02T07:04:27.777Z,64.42
2019-05-02T07:06:59.222Z,65.90
2019-05-02T07:09:39.915Z,53.00
2019-05-02T07:12:01.610Z,54.23
2019-05-02T07:14:31.081Z,52.55
2019-05-02T07:17:05.560Z,54.05
2019-05-02T07:19:35.720Z,54.90
2019-05-02T07:22:05.453Z,55.05
2019-05-02T07:24:35.071Z,52.10
2019-05-02T07:27:04.799Z,52.35
2019-05-02T07:29:34.400Z,50.75
2019-05-02T07:32:05.224Z,53.23
2019-05-02T07:34:34.832Z,54.23
2019-05-02T07:37:08.443Z,54.58
2019-05-02T07:39:36.071Z,52.95
2019-05-02T07:42:07.950Z,50.73
2019-05-02T07:44:37.828Z,50.75
2019-05-02T07:47:07.552Z,55.43
2019-05-02T07:49:37.198Z,55.23
2019-05-02T07:52:06.788Z,53.40
2019-05-02T07:54:36.985Z,54.63
2019-05-02T07:57:06.569Z,56.05
2019-05-02T07:59:36.153Z,56.28
2019-05-02T08:02:05.827Z,54.98
2019-05-02T08:04:35.405Z,54.48
2019-05-02T08:07:05.389Z,54.58
2019-05-02T08:09:39.291Z,53.17
2019-05-02T08:12:07.174Z,55.45
2019-05-02T08:14:36.805Z,55.48
2019-05-02T08:17:16.090Z,52.48
2019-05-02T08:19:41.755Z,52.98
2019-05-02T08:22:13.153Z,50.98
2019-05-02T08:24:40.182Z,50.70
2019-05-02T08:27:14.340Z,50.65
2019-05-02T08:29:43.938Z,50.23
2019-05-02T08:32:14.033Z,54.58
2019-05-02T08:34:46.288Z,49.88
2019-05-02T08:37:14.862Z,51.63
2019-05-02T08:39:44.455Z,51.05
2019-05-02T08:42:14.500Z,50.88
2019-05-02T08:44:51.395Z,53.10
2019-05-02T08:47:18.997Z,52.55
2019-05-02T08:49:49.292Z,54.50
2019-05-02T08:52:18.086Z,51.05
2019-05-02T08:54:47.715Z,54.03
2019-05-02T08:57:17.286Z,54.03
2019-05-02T08:59:46.879Z,54.80
2019-05-02T09:02:16.453Z,59.13
2019-05-02T09:04:57.980Z,54.45
2019-05-02T09:07:17.355Z,54.77
2019-05-02T09:09:47.050Z,57.53
2019-05-02T09:12:16.621Z,57.45
2019-05-02T09:14:46.231Z,57.88
2019-05-02T09:17:16.739Z,56.85
2019-05-02T09:19:59.410Z,57.48
2019-05-02T09:22:17.870Z,57.55
2019-05-02T09:24:47.457Z,55.20
2019-05-02T09:27:17.044Z,57.62
2019-05-02T09:29:46.649Z,61.37
2019-05-02T09:32:17.119Z,61.55
2019-05-02T09:34:47.393Z,62.05
2019-05-02T09:37:16.984Z,65.37
2019-05-02T09:39:46.564Z,63.90
2019-05-02T09:42:18.861Z,68.75
2019-05-02T09:44:47.944Z,66.80
2019-05-02T09:47:27.236Z,67.60
2019-05-02T09:50:09.903Z,68.65
2019-05-02T09:52:41.051Z,69.53
2019-05-02T09:55:12.148Z,67.67
2019-05-02T09:57:42.793Z,85.17
2019-05-02T10:00:32.275Z,69.00
2019-05-02T10:03:02.551Z,67.22
2019-05-02T10:05:32.252Z,67.20
2019-05-02T10:08:02.969Z,64.53
2019-05-02T10:10:37.034Z,66.22
2019-05-02T10:13:06.583Z,65.70
2019-05-02T10:15:36.314Z,66.47
2019-05-02T10:18:10.532Z,67.95
2019-05-02T10:20:37.631Z,66.20
2019-05-02T10:23:11.975Z,64.97
2019-05-02T10:25:44.516Z,65.85
2019-05-02T10:28:12.805Z,65.28
2019-05-02T10:30:42.635Z,63.00
2019-05-02T10:33:13.268Z,63.45
2019-05-02T10:35:44.623Z,68.07
2019-05-02T10:38:19.243Z,62.70
2019-05-02T10:40:48.343Z,61.20
2019-05-02T10:43:16.800Z,62.93
2019-05-02T10:45:52.852Z,59.75
2019-05-02T10:48:25.849Z,65.72
2019-05-02T10:50:52.602Z,63.25
2019-05-02T10:53:22.216Z,62.73
2019-05-02T10:55:57.588Z,61.63
2019-05-02T10:58:32.005Z,62.67
2019-05-02T11:01:02.262Z,57.38
2019-05-02T11:03:37.962Z,65.50
2019-05-02T11:06:07.943Z,59.70
2019-05-02T11:08:42.250Z,56.98
2019-05-02T11:11:09.574Z,57.08
2019-05-02T11:13:43.678Z,59.33
2019-05-02T11:16:23.865Z,56.40
2019-05-02T11:18:57.797Z,59.03
2019-05-02T11:21:27.470Z,60.52
2019-05-02T11:23:57.164Z,56.88
2019-05-02T11:26:26.767Z,55.63
2019-05-02T11:28:56.274Z,57.20
2019-05-02T11:31:25.961Z,58.10
2019-05-02T11:33:57.402Z,57.03
2019-05-02T11:36:27.532Z,54.05
2019-05-02T11:39:09.330Z,54.33
2019-05-02T11:41:28.485Z,57.43
2019-05-02T11:43:58.058Z,54.67
2019-05-02T11:46:27.581Z,57.73
2019-05-02T11:48:58.697Z,55.50
2019-05-02T11:51:28.432Z,57.10
2019-05-02T11:53:59.276Z,52.83
2019-05-02T11:56:29.180Z,54.35
2019-05-02T11:58:59.091Z,55.63
2019-05-02T12:01:35.791Z,50.70
2019-05-02T12:03:59.872Z,47.03
2019-05-02T12:06:29.511Z,48.15
2019-05-02T12:08:59.081Z,44.77
2019-05-02T12:11:28.757Z,41.73
2019-05-02T12:13:58.341Z,39.25
2019-05-02T12:16:28.133Z,35.90
2019-05-02T12:19:09.366Z,37.15
2019-05-02T12:21:32.525Z,38.08
2019-05-02T12:24:02.447Z,43.50
2019-05-02T12:26:32.522Z,44.95
2019-05-02T12:29:02.727Z,40.92
2019-05-02T12:31:32.925Z,37.73
2019-05-02T12:34:04.133Z,38.02
2019-05-02T12:36:33.715Z,38.95
2019-05-02T12:39:05.241Z,29.48
2019-05-02T12:41:34.815Z,23.77
2019-05-02T12:44:04.841Z,17.23
2019-05-02T12:46:34.417Z,20.10
2019-05-02T12:49:04.086Z,19.48
2019-05-02T12:51:33.645Z,19.40
2019-05-02T12:54:03.318Z,22.70
2019-05-02T12:56:32.885Z,22.05
2019-05-02T12:59:02.660Z,22.82
2019-05-02T13:01:33.021Z,25.82
2019-05-02T13:04:04.757Z,22.25
2019-05-02T13:06:36.974Z,25.25
2019-05-02T13:09:08.946Z,21.65
2019-05-02T13:11:52.162Z,21.82
2019-05-02T13:14:22.919Z,19.82
2019-05-02T13:17:00.722Z,21.00
2019-05-02T13:19:37.104Z,23.85
2019-05-02T13:22:00.229Z,21.80
2019-05-02T13:24:32.898Z,21.57
2019-05-02T13:27:04.466Z,20.30
2019-05-02T13:29:33.823Z,21.07
2019-05-02T13:32:08.765Z,22.17
2019-05-02T13:34:37.889Z,19.52
2019-05-02T13:37:09.457Z,19.27
2019-05-02T13:39:42.318Z,19.10
2019-05-02T13:42:12.595Z,21.68
2019-05-02T13:44:52.867Z,18.23
2019-05-02T13:47:24.049Z,23.50
2019-05-02T13:49:57.254Z,21.23
2019-05-02T13:52:24.817Z,22.45
2019-05-02T13:54:54.644Z,23.30
2019-05-02T13:57:24.378Z,21.30
2019-05-02T13:59:53.946Z,22.07
2019-05-02T14:02:34.981Z,22.80
2019-05-02T14:05:07.699Z,23.80
2019-05-02T14:07:37.288Z,22.90
2019-05-02T14:10:12.303Z,22.85
2019-05-02T14:12:46.505Z,25.85
2019-05-02T14:15:18.876Z,24.52
2019-05-02T14:17:48.751Z,24.75
2019-05-02T14:20:22.196Z,26.75
2019-05-02T14:22:52.917Z,28.25
2019-05-02T14:25:22.587Z,31.20
2019-05-02T14:27:55.488Z,32.58
2019-05-02T14:30:36.002Z,31.07
2019-05-02T14:32:58.090Z,26.52
2019-05-02T14:35:29.303Z,22.80
2019-05-02T14:38:09.055Z,23.50
2019-05-02T14:40:59.855Z,23.20
2019-05-02T14:43:49.767Z,17.80
2019-05-02T14:46:22.232Z,19.77
2019-05-02T14:48:52.572Z,16.02
2019-05-02T14:51:27.335Z,14.85
2019-05-02T14:53:57.421Z,16.23
2019-05-02T14:56:33.039Z,15.03
2019-05-02T14:59:02.806Z,17.45
2019-05-02T15:01:32.388Z,17.27
2019-05-02T15:04:06.366Z,19.48
2019-05-02T15:06:38.357Z,18.48
2019-05-02T15:09:09.143Z,18.80
2019-05-02T15:11:43.041Z,21.27
2019-05-02T15:14:18.046Z,17.75
2019-05-02T15:16:45.208Z,16.35
2019-05-02T15:19:15.030Z,18.48
2019-05-02T15:21:47.062Z,19.10
2019-05-02T15:24:16.029Z,21.00
2019-05-02T15:26:45.984Z,23.00
2019-05-02T15:29:19.987Z,24.02
2019-05-02T15:31:57.894Z,25.25
2019-05-02T15:34:45.095Z,24.32
2019-05-02T15:37:07.173Z,27.62
2019-05-02T15:42:07.940Z,32.65
2019-05-02T15:44:37.506Z,36.30
2019-05-02T15:47:07.190Z,36.23
2019-05-02T15:49:41.691Z,36.15
2019-05-02T15:52:12.565Z,39.27
2019-05-02T15:54:42.585Z,37.78
2019-05-02T15:57:12.717Z,39.42
2019-05-02T15:59:46.237Z,40.33
2019-05-02T16:02:17.482Z,38.02
2019-05-02T16:04:47.619Z,40.03
2019-05-02T16:07:17.213Z,37.95
2019-05-02T16:09:46.705Z,37.33
2019-05-02T16:12:16.220Z,39.25
2019-05-02T16:14:46.130Z,36.15
2019-05-02T16:17:21.595Z,36.98
2019-05-02T16:19:52.505Z,36.33
2019-05-02T16:22:23.233Z,37.38
2019-05-02T16:24:53.475Z,37.75
2019-05-02T16:27:28.894Z,37.60
2019-05-02T16:29:58.344Z,37.42
2019-05-02T16:32:35.675Z,37.38
2019-05-02T16:35:12.218Z,39.18
2019-05-02T16:37:35.021Z,39.92
2019-05-02T16:40:07.376Z,37.55
2019-05-02T16:42:37.300Z,40.10
2019-05-02T16:45:09.017Z,37.35
2019-05-02T16:47:38.597Z,38.15
2019-05-02T16:50:12.043Z,36.45
2019-05-02T16:52:43.638Z,38.53
2019-05-02T16:55:20.959Z,43.75
2019-05-02T16:57:46.923Z,37.78
2019-05-02T17:00:19.386Z,37.28
2019-05-02T17:02:49.026Z,34.05
2019-05-02T17:05:19.166Z,35.55
2019-05-02T17:07:53.223Z,33.18
2019-05-02T17:10:27.330Z,32.80
2019-05-02T17:13:00.136Z,33.73
2019-05-02T17:15:31.408Z,32.55
2019-05-02T17:18:05.031Z,32.98
2019-05-02T17:20:32.388Z,33.15
2019-05-02T17:23:06.862Z,32.90
2019-05-02T17:25:33.343Z,32.90
2019-05-02T17:28:08.467Z,31.30
2019-05-02T17:30:39.015Z,32.20
2019-05-02T17:33:07.110Z,31.87
2019-05-02T17:35:43.457Z,30.90
2019-05-02T17:38:08.304Z,29.37
2019-05-02T17:40:38.069Z,29.72
2019-05-02T17:43:07.650Z,29.35
2019-05-02T17:45:38.573Z,28.70
2019-05-02T17:48:15.686Z,29.00
2019-05-02T17:50:44.186Z,27.98
2019-05-02T17:53:14.453Z,27.75
2019-05-02T17:55:44.420Z,26.62
2019-05-02T17:58:16.590Z,26.70
2019-05-02T18:00:51.284Z,26.82
2019-05-02T18:03:18.593Z,27.17
2019-05-02T18:05:48.381Z,26.33
2019-05-02T18:08:18.037Z,24.95
2019-05-02T18:10:50.536Z,28.05
2019-05-02T18:13:18.864Z,27.27
2019-05-02T18:15:48.490Z,26.37
2019-05-02T18:18:18.181Z,26.35
2019-05-02T18:20:47.733Z,26.27
2019-05-02T18:23:18.774Z,27.95
2019-05-02T18:25:48.506Z,25.80
2019-05-02T18:28:22.227Z,26.50
2019-05-02T18:30:50.103Z,27.22
2019-05-02T18:33:19.803Z,24.52
2019-05-02T18:35:49.394Z,24.50
2019-05-02T18:38:20.897Z,24.95
2019-05-02T18:40:52.127Z,24.20
2019-05-02T18:43:22.348Z,22.98
2019-05-02T18:45:52.189Z,23.90
2019-05-02T18:48:22.011Z,24.12
2019-05-02T18:50:52.657Z,21.73
2019-05-02T18:53:24.127Z,23.38
2019-05-02T18:55:56.831Z,23.77
2019-05-02T18:58:25.382Z,22.00
2019-05-02T19:00:55.079Z,22.02
2019-05-02T19:03:24.657Z,22.02
2019-05-02T19:05:57.242Z,20.05
2019-05-02T19:08:31.157Z,21.33
2019-05-02T19:11:05.881Z,20.37
2019-05-02T19:13:32.774Z,19.87
2019-05-02T19:16:02.173Z,18.02
2019-05-02T19:18:32.320Z,17.25
2019-05-02T19:21:03.444Z,16.37
2019-05-02T19:23:34.301Z,15.85
2019-05-02T19:26:10.143Z,20.95
2019-05-02T19:28:42.777Z,14.70
2019-05-02T19:31:13.246Z,14.90
2019-05-02T19:33:44.133Z,14.85
2019-05-02T19:36:19.858Z,15.03
2019-05-02T19:38:45.247Z,14.87
2019-05-02T19:41:14.863Z,36.08
2019-05-02T19:43:49.378Z,14.45
2019-05-02T19:46:16.988Z,14.45
2019-05-02T19:48:46.853Z,13.15
2019-05-02T19:51:18.477Z,15.35
2019-05-02T19:53:53.525Z,14.90
2019-05-02T19:56:19.765Z,15.60
2019-05-02T19:58:49.650Z,14.87
2019-05-02T20:01:23.035Z,16.35
2019-05-02T20:03:52.055Z,16.25
2019-05-02T20:06:22.143Z,17.50
2019-05-02T20:08:54.467Z,17.23
2019-05-02T20:11:23.375Z,16.55
2019-05-02T20:13:52.973Z,15.58
2019-05-02T20:16:27.609Z,14.53
2019-05-02T20:18:57.200Z,16.25
2019-05-02T20:21:28.482Z,15.93
2019-05-02T20:23:58.139Z,15.45
2019-05-02T20:26:27.775Z,14.25
2019-05-02T20:28:57.289Z,12.55
2019-05-02T20:31:26.883Z,16.65
2019-05-02T20:33:56.538Z,13.72
2019-05-02T20:36:26.110Z,13.88
2019-05-02T20:38:55.729Z,14.93
2019-05-02T20:41:25.324Z,12.73
2019-05-02T20:43:55.064Z,12.93
2019-05-02T20:46:24.735Z,12.78
2019-05-02T20:48:54.390Z,13.50
2019-05-02T20:51:23.985Z,13.95
2019-05-02T20:53:53.607Z,12.90
2019-05-02T20:56:23.209Z,12.55
2019-05-02T20:58:52.907Z,12.15
2019-05-02T21:01:22.683Z,12.55
2019-05-02T21:03:52.328Z,11.75
2019-05-02T21:06:43.366Z,22.30
2019-05-02T21:09:19.434Z,15.10
2019-05-02T21:11:52.380Z,12.00
2019-05-02T21:14:21.910Z,11.85
2019-05-02T21:16:51.515Z,11.75
2019-05-02T21:19:21.744Z,12.85
2019-05-02T21:21:52.592Z,11.75
2019-05-02T21:24:22.391Z,12.58
2019-05-02T21:26:52.501Z,12.35
2019-05-02T21:29:22.887Z,11.25
2019-05-02T21:31:53.506Z,11.80
2019-05-02T21:34:23.108Z,11.63
2019-05-02T21:36:52.704Z,11.73
2019-05-02T21:39:22.601Z,11.88
2019-05-02T21:41:52.430Z,12.63
2019-05-02T21:44:22.382Z,12.03
2019-05-02T21:46:52.409Z,11.28
2019-05-02T21:49:40.241Z,11.53
2019-05-02T21:52:14.400Z,11.15
2019-05-02T21:54:52.184Z,11.18
2019-05-02T21:57:22.703Z,11.00
2019-05-02T21:59:52.786Z,14.58
2019-05-02T22:02:22.648Z,9.73
2019-05-02T22:04:52.882Z,9.48
2019-05-02T22:07:22.568Z,9.73
2019-05-02T22:09:52.464Z,10.03
2019-05-02T22:12:22.573Z,9.30
2019-05-02T22:14:52.774Z,9.30
2019-05-02T22:17:22.552Z,8.80
2019-05-02T22:19:52.560Z,8.73
2019-05-02T22:22:22.834Z,7.72
2019-05-02T22:24:52.932Z,7.65
2019-05-02T22:27:22.612Z,8.58
2019-05-02T22:29:54.616Z,7.08
2019-05-02T22:32:23.423Z,8.28
2019-05-02T22:34:55.843Z,7.78
2019-05-02T22:37:25.325Z,8.80
2019-05-02T22:39:56.610Z,7.97
2019-05-02T22:42:26.309Z,8.13
2019-05-02T22:44:55.901Z,8.20
2019-05-02T22:47:25.494Z,8.23
2019-05-02T22:49:55.146Z,7.53
2019-05-02T22:52:24.757Z,8.15
2019-05-02T22:54:54.339Z,6.45
2019-05-02T22:57:23.946Z,7.42
2019-05-02T22:59:54.508Z,6.85
2019-05-02T23:02:24.179Z,7.17
2019-05-02T23:04:53.766Z,8.33
2019-05-02T23:07:23.371Z,7.78
2019-05-02T23:09:52.965Z,7.67
2019-05-02T23:12:24.911Z,8.33
2019-05-02T23:14:53.779Z,8.58
2019-05-02T23:17:23.453Z,8.98
2019-05-02T23:19:53.037Z,8.00
2019-05-02T23:22:22.634Z,8.60
2019-05-02T23:24:56.971Z,7.40
2019-05-02T23:27:28.198Z,8.65
2019-05-02T23:29:57.868Z,8.63
2019-05-02T23:32:27.463Z,8.68
2019-05-02T23:34:57.046Z,8.15
2019-05-02T23:37:26.658Z,7.83
2019-05-02T23:39:56.251Z,8.20
2019-05-02T23:42:25.855Z,8.35
2019-05-02T23:44:55.443Z,7.90
2019-05-02T23:47:25.052Z,8.10
2019-05-02T23:49:54.655Z,7.20
2019-05-02T23:52:24.309Z,6.60
2019-05-02T23:54:53.901Z,6.90
2019-05-02T23:57:23.498Z,6.72
2019-05-02T23:59:53.166Z,7.17
